sensor_id;sensor_type;location;lat;lon;timestamp;temperature;humidity
25352;DHT22;13304;48.464;8.712;2022-08-23T00:01:55;20.50;59.20
25352;DHT22;13304;48.464;8.712;2022-08-23T00:04:24;20.50;59.10
25352;DHT22;13304;48.464;8.712;2022-08-23T00:06:51;20.50;59.20
25352;DHT22;13304;48.464;8.712;2022-08-23T00:09:19;20.50;59.30
25352;DHT22;13304;48.464;8.712;2022-08-23T00:11:52;20.50;59.40
25352;DHT22;13304;48.464;8.712;2022-08-23T00:14:24;20.40;59.60
25352;DHT22;13304;48.464;8.712;2022-08-23T00:16:50;20.40;59.60
25352;DHT22;13304;48.464;8.712;2022-08-23T00:19:19;20.40;59.60
25352;DHT22;13304;48.464;8.712;2022-08-23T00:21:46;20.40;59.70
25352;DHT22;13304;48.464;8.712;2022-08-23T00:24:13;20.40;59.70
25352;DHT22;13304;48.464;8.712;2022-08-23T00:27:05;20.30;59.70
25352;DHT22;13304;48.464;8.712;2022-08-23T00:29:48;20.30;60.20
25352;DHT22;13304;48.464;8.712;2022-08-23T00:32:17;20.30;60.20
25352;DHT22;13304;48.464;8.712;2022-08-23T00:34:43;20.30;59.80
25352;DHT22;13304;48.464;8.712;2022-08-23T00:37:10;20.20;59.80
25352;DHT22;13304;48.464;8.712;2022-08-23T00:39:37;20.20;60.00
25352;DHT22;13304;48.464;8.712;2022-08-23T00:42:15;20.20;60.00
25352;DHT22;13304;48.464;8.712;2022-08-23T00:45:06;20.20;60.30
25352;DHT22;13304;48.464;8.712;2022-08-23T00:47:52;20.20;60.10
25352;DHT22;13304;48.464;8.712;2022-08-23T00:50:48;20.10;60.20
25352;DHT22;13304;48.464;8.712;2022-08-23T00:53:26;20.10;60.40
25352;DHT22;13304;48.464;8.712;2022-08-23T00:56:01;20.10;60.70
25352;DHT22;13304;48.464;8.712;2022-08-23T00:58:28;20.10;60.50
25352;DHT22;13304;48.464;8.712;2022-08-23T01:00:56;20.10;60.50
25352;DHT22;13304;48.464;8.712;2022-08-23T01:03:28;20.00;60.60
25352;DHT22;13304;48.464;8.712;2022-08-23T01:06:18;20.00;60.60
25352;DHT22;13304;48.464;8.712;2022-08-23T01:08:53;20.00;60.80
25352;DHT22;13304;48.464;8.712;2022-08-23T01:11:29;20.00;60.70
25352;DHT22;13304;48.464;8.712;2022-08-23T01:14:17;19.90;60.80
25352;DHT22;13304;48.464;8.712;2022-08-23T01:16:55;19.90;61.20
25352;DHT22;13304;48.464;8.712;2022-08-23T01:19:52;19.90;61.00
25352;DHT22;13304;48.464;8.712;2022-08-23T01:22:36;19.80;60.90
25352;DHT22;13304;48.464;8.712;2022-08-23T01:25:09;19.80;61.00
25352;DHT22;13304;48.464;8.712;2022-08-23T01:27:36;19.80;61.10
25352;DHT22;13304;48.464;8.712;2022-08-23T01:30:06;19.80;60.90
25352;DHT22;13304;48.464;8.712;2022-08-23T01:32:32;19.70;61.80
25352;DHT22;13304;48.464;8.712;2022-08-23T01:35:00;19.60;61.40
25352;DHT22;13304;48.464;8.712;2022-08-23T01:37:26;19.70;60.60
25352;DHT22;13304;48.464;8.712;2022-08-23T01:39:52;19.70;60.70
25352;DHT22;13304;48.464;8.712;2022-08-23T01:42:19;19.60;60.80
25352;DHT22;13304;48.464;8.712;2022-08-23T01:44:45;19.60;61.10
25352;DHT22;13304;48.464;8.712;2022-08-23T01:47:11;19.60;61.20
25352;DHT22;13304;48.464;8.712;2022-08-23T01:49:37;19.50;61.50
25352;DHT22;13304;48.464;8.712;2022-08-23T01:52:03;19.50;61.70
25352;DHT22;13304;48.464;8.712;2022-08-23T01:54:34;19.50;61.80
25352;DHT22;13304;48.464;8.712;2022-08-23T01:57:00;19.40;61.90
25352;DHT22;13304;48.464;8.712;2022-08-23T01:59:26;19.40;61.90
25352;DHT22;13304;48.464;8.712;2022-08-23T02:01:51;19.40;61.90
25352;DHT22;13304;48.464;8.712;2022-08-23T02:04:18;19.40;62.10
25352;DHT22;13304;48.464;8.712;2022-08-23T02:06:44;19.30;62.20
25352;DHT22;13304;48.464;8.712;2022-08-23T02:09:10;19.30;62.00
25352;DHT22;13304;48.464;8.712;2022-08-23T02:11:40;19.30;62.10
25352;DHT22;13304;48.464;8.712;2022-08-23T02:14:10;19.20;62.60
25352;DHT22;13304;48.464;8.712;2022-08-23T02:16:40;19.20;62.90
25352;DHT22;13304;48.464;8.712;2022-08-23T02:19:09;19.20;63.00
25352;DHT22;13304;48.464;8.712;2022-08-23T02:21:36;19.10;63.40
25352;DHT22;13304;48.464;8.712;2022-08-23T02:24:14;19.10;63.50
25352;DHT22;13304;48.464;8.712;2022-08-23T02:26:43;19.10;63.70
25352;DHT22;13304;48.464;8.712;2022-08-23T02:29:11;19.10;63.90
25352;DHT22;13304;48.464;8.712;2022-08-23T02:31:36;19.00;64.00
25352;DHT22;13304;48.464;8.712;2022-08-23T02:34:03;19.00;64.10
25352;DHT22;13304;48.464;8.712;2022-08-23T02:36:31;19.00;64.20
25352;DHT22;13304;48.464;8.712;2022-08-23T02:38:57;19.00;64.60
25352;DHT22;13304;48.464;8.712;2022-08-23T02:41:24;19.00;64.50
25352;DHT22;13304;48.464;8.712;2022-08-23T02:43:51;19.00;64.70
25352;DHT22;13304;48.464;8.712;2022-08-23T02:46:21;19.00;64.80
25352;DHT22;13304;48.464;8.712;2022-08-23T02:48:48;19.00;64.70
25352;DHT22;13304;48.464;8.712;2022-08-23T02:51:15;19.10;64.90
25352;DHT22;13304;48.464;8.712;2022-08-23T02:53:41;19.10;64.90
25352;DHT22;13304;48.464;8.712;2022-08-23T02:56:07;19.10;64.90
25352;DHT22;13304;48.464;8.712;2022-08-23T02:58:33;19.10;64.90
25352;DHT22;13304;48.464;8.712;2022-08-23T03:01:00;19.00;64.90
25352;DHT22;13304;48.464;8.712;2022-08-23T03:03:26;19.10;64.90
25352;DHT22;13304;48.464;8.712;2022-08-23T03:05:52;19.10;64.80
25352;DHT22;13304;48.464;8.712;2022-08-23T03:08:19;19.10;64.70
25352;DHT22;13304;48.464;8.712;2022-08-23T03:10:47;19.10;64.70
25352;DHT22;13304;48.464;8.712;2022-08-23T03:13:14;19.10;64.70
25352;DHT22;13304;48.464;8.712;2022-08-23T03:15:40;19.00;64.40
25352;DHT22;13304;48.464;8.712;2022-08-23T03:18:07;19.00;64.10
25352;DHT22;13304;48.464;8.712;2022-08-23T03:20:34;19.00;64.10
25352;DHT22;13304;48.464;8.712;2022-08-23T03:23:03;19.00;64.00
25352;DHT22;13304;48.464;8.712;2022-08-23T03:25:28;18.90;64.00
25352;DHT22;13304;48.464;8.712;2022-08-23T03:27:54;18.90;64.00
25352;DHT22;13304;48.464;8.712;2022-08-23T03:30:20;18.90;64.10
25352;DHT22;13304;48.464;8.712;2022-08-23T03:32:46;18.90;64.20
25352;DHT22;13304;48.464;8.712;2022-08-23T03:35:11;18.90;64.40
25352;DHT22;13304;48.464;8.712;2022-08-23T03:37:38;18.80;64.40
25352;DHT22;13304;48.464;8.712;2022-08-23T03:40:05;18.80;64.30
25352;DHT22;13304;48.464;8.712;2022-08-23T03:42:32;18.80;64.20
25352;DHT22;13304;48.464;8.712;2022-08-23T03:44:58;18.80;64.10
25352;DHT22;13304;48.464;8.712;2022-08-23T03:47:24;18.70;64.10
25352;DHT22;13304;48.464;8.712;2022-08-23T03:49:49;18.70;64.00
25352;DHT22;13304;48.464;8.712;2022-08-23T03:52:15;18.70;64.20
25352;DHT22;13304;48.464;8.712;2022-08-23T03:54:41;18.60;64.30
25352;DHT22;13304;48.464;8.712;2022-08-23T03:57:08;18.60;64.50
25352;DHT22;13304;48.464;8.712;2022-08-23T03:59:36;18.60;64.80
25352;DHT22;13304;48.464;8.712;2022-08-23T04:02:03;18.60;65.00
25352;DHT22;13304;48.464;8.712;2022-08-23T04:04:28;18.50;65.00
25352;DHT22;13304;48.464;8.712;2022-08-23T04:06:54;18.50;65.20
25352;DHT22;13304;48.464;8.712;2022-08-23T04:09:21;18.50;65.20
25352;DHT22;13304;48.464;8.712;2022-08-23T04:11:46;18.40;65.10
25352;DHT22;13304;48.464;8.712;2022-08-23T04:14:13;18.40;65.20
25352;DHT22;13304;48.464;8.712;2022-08-23T04:16:39;18.40;65.30
25352;DHT22;13304;48.464;8.712;2022-08-23T04:19:11;18.40;65.40
25352;DHT22;13304;48.464;8.712;2022-08-23T04:21:46;18.30;65.60
25352;DHT22;13304;48.464;8.712;2022-08-23T04:24:13;18.30;65.80
25352;DHT22;13304;48.464;8.712;2022-08-23T04:26:40;18.30;65.80
25352;DHT22;13304;48.464;8.712;2022-08-23T04:29:06;18.30;65.90
25352;DHT22;13304;48.464;8.712;2022-08-23T04:31:33;18.30;66.00
25352;DHT22;13304;48.464;8.712;2022-08-23T04:33:59;18.30;66.10
25352;DHT22;13304;48.464;8.712;2022-08-23T04:36:25;18.20;66.20
25352;DHT22;13304;48.464;8.712;2022-08-23T04:38:51;18.20;66.50
25352;DHT22;13304;48.464;8.712;2022-08-23T04:41:17;18.30;66.60
25352;DHT22;13304;48.464;8.712;2022-08-23T04:44:05;18.20;66.40
25352;DHT22;13304;48.464;8.712;2022-08-23T04:46:31;18.20;66.60
25352;DHT22;13304;48.464;8.712;2022-08-23T04:48:56;18.20;66.60
25352;DHT22;13304;48.464;8.712;2022-08-23T04:51:24;18.20;67.30
25352;DHT22;13304;48.464;8.712;2022-08-23T04:53:50;18.20;66.60
25352;DHT22;13304;48.464;8.712;2022-08-23T04:56:15;18.20;66.70
25352;DHT22;13304;48.464;8.712;2022-08-23T04:58:41;18.20;66.90
25352;DHT22;13304;48.464;8.712;2022-08-23T05:01:08;18.10;66.90
25352;DHT22;13304;48.464;8.712;2022-08-23T05:03:38;18.10;67.00
25352;DHT22;13304;48.464;8.712;2022-08-23T05:06:04;18.20;67.20
25352;DHT22;13304;48.464;8.712;2022-08-23T05:08:30;18.10;67.20
25352;DHT22;13304;48.464;8.712;2022-08-23T05:11:01;18.10;67.50
25352;DHT22;13304;48.464;8.712;2022-08-23T05:13:28;18.10;67.70
25352;DHT22;13304;48.464;8.712;2022-08-23T05:15:54;18.20;67.70
25352;DHT22;13304;48.464;8.712;2022-08-23T05:18:20;18.20;67.60
25352;DHT22;13304;48.464;8.712;2022-08-23T05:20:47;18.20;67.50
25352;DHT22;13304;48.464;8.712;2022-08-23T05:23:15;18.20;67.50
25352;DHT22;13304;48.464;8.712;2022-08-23T05:25:41;18.20;67.20
25352;DHT22;13304;48.464;8.712;2022-08-23T05:28:18;18.20;67.10
25352;DHT22;13304;48.464;8.712;2022-08-23T05:31:06;18.20;67.30
25352;DHT22;13304;48.464;8.712;2022-08-23T05:33:33;18.20;67.70
25352;DHT22;13304;48.464;8.712;2022-08-23T05:36:00;18.20;67.50
25352;DHT22;13304;48.464;8.712;2022-08-23T05:38:27;18.20;67.80
25352;DHT22;13304;48.464;8.712;2022-08-23T05:40:55;18.20;68.10
25352;DHT22;13304;48.464;8.712;2022-08-23T05:43:27;18.20;68.30
25352;DHT22;13304;48.464;8.712;2022-08-23T05:46:25;18.30;68.30
25352;DHT22;13304;48.464;8.712;2022-08-23T05:48:51;18.20;68.70
25352;DHT22;13304;48.464;8.712;2022-08-23T05:53:44;18.40;68.80
25352;DHT22;13304;48.464;8.712;2022-08-23T05:56:34;18.40;68.70
25352;DHT22;13304;48.464;8.712;2022-08-23T05:59:02;18.40;68.70
25352;DHT22;13304;48.464;8.712;2022-08-23T06:01:29;18.50;68.70
25352;DHT22;13304;48.464;8.712;2022-08-23T06:03:58;18.60;68.60
25352;DHT22;13304;48.464;8.712;2022-08-23T06:06:25;18.60;68.80
25352;DHT22;13304;48.464;8.712;2022-08-23T06:08:54;18.60;68.60
25352;DHT22;13304;48.464;8.712;2022-08-23T06:11:22;18.70;68.70
25352;DHT22;13304;48.464;8.712;2022-08-23T06:13:54;18.70;68.90
25352;DHT22;13304;48.464;8.712;2022-08-23T06:16:24;18.80;69.00
25352;DHT22;13304;48.464;8.712;2022-08-23T06:18:51;18.80;69.10
25352;DHT22;13304;48.464;8.712;2022-08-23T06:21:21;18.90;68.90
25352;DHT22;13304;48.464;8.712;2022-08-23T06:23:48;18.90;68.90
25352;DHT22;13304;48.464;8.712;2022-08-23T06:26:17;19.00;68.80
25352;DHT22;13304;48.464;8.712;2022-08-23T06:28:48;19.00;68.70
25352;DHT22;13304;48.464;8.712;2022-08-23T06:31:15;19.10;68.90
25352;DHT22;13304;48.464;8.712;2022-08-23T06:33:42;19.20;68.80
25352;DHT22;13304;48.464;8.712;2022-08-23T06:36:10;19.20;68.60
25352;DHT22;13304;48.464;8.712;2022-08-23T06:38:39;19.20;68.30
25352;DHT22;13304;48.464;8.712;2022-08-23T06:41:12;19.30;68.30
25352;DHT22;13304;48.464;8.712;2022-08-23T06:43:39;19.30;68.20
25352;DHT22;13304;48.464;8.712;2022-08-23T06:46:17;19.40;67.90
25352;DHT22;13304;48.464;8.712;2022-08-23T06:48:44;19.50;68.00
25352;DHT22;13304;48.464;8.712;2022-08-23T06:51:25;19.60;67.90
25352;DHT22;13304;48.464;8.712;2022-08-23T06:53:52;19.60;67.70
25352;DHT22;13304;48.464;8.712;2022-08-23T06:56:25;19.70;67.50
25352;DHT22;13304;48.464;8.712;2022-08-23T06:58:52;19.70;67.40
25352;DHT22;13304;48.464;8.712;2022-08-23T07:01:31;19.90;67.40
25352;DHT22;13304;48.464;8.712;2022-08-23T07:03:59;19.90;67.20
25352;DHT22;13304;48.464;8.712;2022-08-23T07:06:26;20.00;67.00
25352;DHT22;13304;48.464;8.712;2022-08-23T07:08:53;20.10;67.00
25352;DHT22;13304;48.464;8.712;2022-08-23T07:11:19;20.20;66.80
25352;DHT22;13304;48.464;8.712;2022-08-23T07:13:46;20.20;66.60
25352;DHT22;13304;48.464;8.712;2022-08-23T07:16:13;20.30;66.40
25352;DHT22;13304;48.464;8.712;2022-08-23T07:18:43;20.40;66.30
25352;DHT22;13304;48.464;8.712;2022-08-23T07:21:10;20.50;65.90
25352;DHT22;13304;48.464;8.712;2022-08-23T07:23:38;20.50;65.70
25352;DHT22;13304;48.464;8.712;2022-08-23T07:26:10;20.60;65.50
25352;DHT22;13304;48.464;8.712;2022-08-23T07:28:37;20.70;64.90
25352;DHT22;13304;48.464;8.712;2022-08-23T07:31:24;20.80;64.90
25352;DHT22;13304;48.464;8.712;2022-08-23T07:33:59;20.80;64.20
25352;DHT22;13304;48.464;8.712;2022-08-23T07:36:27;20.90;64.10
25352;DHT22;13304;48.464;8.712;2022-08-23T07:38:54;21.00;63.30
25352;DHT22;13304;48.464;8.712;2022-08-23T07:41:22;21.10;63.40
25352;DHT22;13304;48.464;8.712;2022-08-23T07:43:49;21.20;62.50
25352;DHT22;13304;48.464;8.712;2022-08-23T07:46:16;21.20;62.40
25352;DHT22;13304;48.464;8.712;2022-08-23T07:48:42;21.30;62.40
25352;DHT22;13304;48.464;8.712;2022-08-23T07:51:12;21.40;61.70
25352;DHT22;13304;48.464;8.712;2022-08-23T07:53:39;21.50;61.30
25352;DHT22;13304;48.464;8.712;2022-08-23T07:56:08;21.60;60.60
25352;DHT22;13304;48.464;8.712;2022-08-23T07:58:34;21.60;60.30
25352;DHT22;13304;48.464;8.712;2022-08-23T08:03:46;21.80;59.50
25352;DHT22;13304;48.464;8.712;2022-08-23T08:06:33;21.90;59.80
25352;DHT22;13304;48.464;8.712;2022-08-23T08:08:59;22.00;58.90
25352;DHT22;13304;48.464;8.712;2022-08-23T08:11:26;22.10;59.10
25352;DHT22;13304;48.464;8.712;2022-08-23T08:13:54;22.20;58.30
25352;DHT22;13304;48.464;8.712;2022-08-23T08:19:17;22.30;57.50
25352;DHT22;13304;48.464;8.712;2022-08-23T08:21:45;22.40;56.40
25352;DHT22;13304;48.464;8.712;2022-08-23T08:24:13;22.50;56.50
25352;DHT22;13304;48.464;8.712;2022-08-23T08:26:41;22.60;56.40
25352;DHT22;13304;48.464;8.712;2022-08-23T08:29:07;22.70;56.60
25352;DHT22;13304;48.464;8.712;2022-08-23T08:31:36;22.70;56.20
25352;DHT22;13304;48.464;8.712;2022-08-23T08:34:05;22.80;56.00
25352;DHT22;13304;48.464;8.712;2022-08-23T08:39:07;23.00;56.20
25352;DHT22;13304;48.464;8.712;2022-08-23T08:46:49;23.20;54.40
25352;DHT22;13304;48.464;8.712;2022-08-23T08:49:28;23.20;54.20
25352;DHT22;13304;48.464;8.712;2022-08-23T08:52:06;23.30;53.60
25352;DHT22;13304;48.464;8.712;2022-08-23T08:54:36;23.40;52.00
25352;DHT22;13304;48.464;8.712;2022-08-23T08:57:02;23.40;52.40
25352;DHT22;13304;48.464;8.712;2022-08-23T08:59:51;23.50;51.10
25352;DHT22;13304;48.464;8.712;2022-08-23T09:02:20;23.50;51.60
25352;DHT22;13304;48.464;8.712;2022-08-23T09:04:46;23.70;51.70
25352;DHT22;13304;48.464;8.712;2022-08-23T09:07:31;23.80;52.30
25352;DHT22;13304;48.464;8.712;2022-08-23T09:19:01;24.00;49.30
25352;DHT22;13304;48.464;8.712;2022-08-23T09:21:55;24.10;50.50
25352;DHT22;13304;48.464;8.712;2022-08-23T09:24:21;24.10;49.80
25352;DHT22;13304;48.464;8.712;2022-08-23T09:26:50;24.20;50.80
25352;DHT22;13304;48.464;8.712;2022-08-23T09:29:29;24.30;50.00
25352;DHT22;13304;48.464;8.712;2022-08-23T09:32:00;24.30;49.70
25352;DHT22;13304;48.464;8.712;2022-08-23T09:37:22;24.50;49.70
25352;DHT22;13304;48.464;8.712;2022-08-23T09:42:39;24.60;47.80
25352;DHT22;13304;48.464;8.712;2022-08-23T09:45:33;24.70;48.60
25352;DHT22;13304;48.464;8.712;2022-08-23T09:47:59;24.80;47.00
25352;DHT22;13304;48.464;8.712;2022-08-23T09:50:28;24.90;48.10
25352;DHT22;13304;48.464;8.712;2022-08-23T09:53:11;24.90;47.20
25352;DHT22;13304;48.464;8.712;2022-08-23T09:55:40;25.00;46.30
25352;DHT22;13304;48.464;8.712;2022-08-23T09:58:29;25.00;46.20
25352;DHT22;13304;48.464;8.712;2022-08-23T10:01:22;25.10;45.60
25352;DHT22;13304;48.464;8.712;2022-08-23T10:04:11;25.10;45.70
25352;DHT22;13304;48.464;8.712;2022-08-23T10:06:38;25.20;45.40
25352;DHT22;13304;48.464;8.712;2022-08-23T10:09:06;25.20;46.30
25352;DHT22;13304;48.464;8.712;2022-08-23T10:11:39;25.30;46.20
25352;DHT22;13304;48.464;8.712;2022-08-23T10:14:06;25.30;45.00
25352;DHT22;13304;48.464;8.712;2022-08-23T10:19:53;25.40;43.90
25352;DHT22;13304;48.464;8.712;2022-08-23T10:22:28;25.50;44.80
25352;DHT22;13304;48.464;8.712;2022-08-23T10:25:10;25.50;43.30
25352;DHT22;13304;48.464;8.712;2022-08-23T10:27:55;25.70;44.80
25352;DHT22;13304;48.464;8.712;2022-08-23T10:34:16;25.80;43.30
25352;DHT22;13304;48.464;8.712;2022-08-23T10:39:32;25.90;41.60
25352;DHT22;13304;48.464;8.712;2022-08-23T10:45:15;26.00;41.20
25352;DHT22;13304;48.464;8.712;2022-08-23T10:48:17;26.10;40.40
25352;DHT22;13304;48.464;8.712;2022-08-23T10:50:50;26.10;40.50
25352;DHT22;13304;48.464;8.712;2022-08-23T10:53:19;26.20;41.10
25352;DHT22;13304;48.464;8.712;2022-08-23T10:55:55;26.20;40.40
25352;DHT22;13304;48.464;8.712;2022-08-23T10:58:45;26.30;40.50
25352;DHT22;13304;48.464;8.712;2022-08-23T11:01:20;26.30;39.20
25352;DHT22;13304;48.464;8.712;2022-08-23T11:06:50;26.40;39.60
25352;DHT22;13304;48.464;8.712;2022-08-23T11:11:48;26.40;39.70
25352;DHT22;13304;48.464;8.712;2022-08-23T11:14:30;26.50;39.10
25352;DHT22;13304;48.464;8.712;2022-08-23T11:17:00;26.50;38.30
25352;DHT22;13304;48.464;8.712;2022-08-23T11:19:50;26.60;39.60
25352;DHT22;13304;48.464;8.712;2022-08-23T11:22:19;26.50;37.90
25352;DHT22;13304;48.464;8.712;2022-08-23T11:24:52;26.60;39.30
25352;DHT22;13304;48.464;8.712;2022-08-23T11:27:42;26.60;39.10
25352;DHT22;13304;48.464;8.712;2022-08-23T11:33:06;26.70;38.10
25352;DHT22;13304;48.464;8.712;2022-08-23T11:46:57;26.80;37.90
25352;DHT22;13304;48.464;8.712;2022-08-23T11:52:35;27.00;37.90
25352;DHT22;13304;48.464;8.712;2022-08-23T11:55:34;26.90;37.30
25352;DHT22;13304;48.464;8.712;2022-08-23T12:01:28;27.00;38.00
25352;DHT22;13304;48.464;8.712;2022-08-23T12:04:03;27.10;38.30
25352;DHT22;13304;48.464;8.712;2022-08-23T12:06:47;27.10;37.50
25352;DHT22;13304;48.464;8.712;2022-08-23T12:19:40;27.20;36.90
25352;DHT22;13304;48.464;8.712;2022-08-23T12:22:12;27.30;37.90
25352;DHT22;13304;48.464;8.712;2022-08-23T12:24:49;27.30;37.30
25352;DHT22;13304;48.464;8.712;2022-08-23T12:27:48;27.30;36.00
25352;DHT22;13304;48.464;8.712;2022-08-23T12:30:25;27.30;36.70
25352;DHT22;13304;48.464;8.712;2022-08-23T12:35:40;27.30;36.40
25352;DHT22;13304;48.464;8.712;2022-08-23T12:40:46;27.40;35.80
25352;DHT22;13304;48.464;8.712;2022-08-23T12:45:41;27.40;36.50
25352;DHT22;13304;48.464;8.712;2022-08-23T12:48:10;27.40;35.50
25352;DHT22;13304;48.464;8.712;2022-08-23T12:50:37;27.50;35.90
25352;DHT22;13304;48.464;8.712;2022-08-23T12:53:10;27.30;34.60
25352;DHT22;13304;48.464;8.712;2022-08-23T12:55:41;27.40;34.80
25352;DHT22;13304;48.464;8.712;2022-08-23T12:58:09;27.50;34.60
25352;DHT22;13304;48.464;8.712;2022-08-23T13:03:08;27.50;35.00
25352;DHT22;13304;48.464;8.712;2022-08-23T13:05:43;27.50;34.90
25352;DHT22;13304;48.464;8.712;2022-08-23T13:08:32;27.50;35.60
25352;DHT22;13304;48.464;8.712;2022-08-23T13:10:59;27.50;34.40
25352;DHT22;13304;48.464;8.712;2022-08-23T13:13:26;27.60;35.40
25352;DHT22;13304;48.464;8.712;2022-08-23T13:15:57;27.60;35.20
25352;DHT22;13304;48.464;8.712;2022-08-23T13:18:25;27.60;35.30
25352;DHT22;13304;48.464;8.712;2022-08-23T13:23:42;27.60;34.60
25352;DHT22;13304;48.464;8.712;2022-08-23T13:26:39;27.70;34.60
25352;DHT22;13304;48.464;8.712;2022-08-23T13:32:02;27.70;35.10
25352;DHT22;13304;48.464;8.712;2022-08-23T13:34:44;27.60;33.90
25352;DHT22;13304;48.464;8.712;2022-08-23T13:37:24;27.70;34.40
25352;DHT22;13304;48.464;8.712;2022-08-23T13:39:53;27.70;34.60
25352;DHT22;13304;48.464;8.712;2022-08-23T13:42:46;27.70;35.10
25352;DHT22;13304;48.464;8.712;2022-08-23T13:45:23;27.80;35.20
25352;DHT22;13304;48.464;8.712;2022-08-23T13:50:34;27.80;34.20
25352;DHT22;13304;48.464;8.712;2022-08-23T13:53:00;27.80;34.50
25352;DHT22;13304;48.464;8.712;2022-08-23T13:55:26;27.80;32.90
25352;DHT22;13304;48.464;8.712;2022-08-23T13:57:54;27.80;33.60
25352;DHT22;13304;48.464;8.712;2022-08-23T14:00:20;27.80;33.30
25352;DHT22;13304;48.464;8.712;2022-08-23T14:02:47;27.90;33.80
25352;DHT22;13304;48.464;8.712;2022-08-23T14:05:17;27.90;33.70
25352;DHT22;13304;48.464;8.712;2022-08-23T14:07:47;27.90;33.20
25352;DHT22;13304;48.464;8.712;2022-08-23T14:10:21;27.90;33.40
25352;DHT22;13304;48.464;8.712;2022-08-23T14:12:51;27.90;34.00
25352;DHT22;13304;48.464;8.712;2022-08-23T14:15:17;27.90;33.70
25352;DHT22;13304;48.464;8.712;2022-08-23T14:17:46;27.90;34.20
25352;DHT22;13304;48.464;8.712;2022-08-23T14:20:18;27.90;34.30
25352;DHT22;13304;48.464;8.712;2022-08-23T14:22:47;27.90;34.40
25352;DHT22;13304;48.464;8.712;2022-08-23T14:25:14;27.90;34.00
25352;DHT22;13304;48.464;8.712;2022-08-23T14:27:41;28.00;34.20
25352;DHT22;13304;48.464;8.712;2022-08-23T14:30:26;27.90;33.80
25352;DHT22;13304;48.464;8.712;2022-08-23T14:32:55;27.90;33.60
25352;DHT22;13304;48.464;8.712;2022-08-23T14:35:21;27.90;33.10
25352;DHT22;13304;48.464;8.712;2022-08-23T14:37:47;28.00;33.80
25352;DHT22;13304;48.464;8.712;2022-08-23T14:40:14;28.00;34.50
25352;DHT22;13304;48.464;8.712;2022-08-23T14:42:40;28.00;33.90
25352;DHT22;13304;48.464;8.712;2022-08-23T14:45:17;28.10;34.40
25352;DHT22;13304;48.464;8.712;2022-08-23T14:47:43;28.00;34.00
25352;DHT22;13304;48.464;8.712;2022-08-23T14:50:12;28.10;34.60
25352;DHT22;13304;48.464;8.712;2022-08-23T14:52:45;28.10;34.20
25352;DHT22;13304;48.464;8.712;2022-08-23T14:55:11;28.10;34.10
25352;DHT22;13304;48.464;8.712;2022-08-23T14:57:37;28.10;33.80
25352;DHT22;13304;48.464;8.712;2022-08-23T15:00:06;28.10;34.40
25352;DHT22;13304;48.464;8.712;2022-08-23T15:02:33;28.20;34.70
25352;DHT22;13304;48.464;8.712;2022-08-23T15:05:01;28.20;34.10
25352;DHT22;13304;48.464;8.712;2022-08-23T15:07:27;28.20;34.20
25352;DHT22;13304;48.464;8.712;2022-08-23T15:09:53;28.20;34.50
25352;DHT22;13304;48.464;8.712;2022-08-23T15:12:22;28.20;34.00
25352;DHT22;13304;48.464;8.712;2022-08-23T15:14:48;28.20;33.80
25352;DHT22;13304;48.464;8.712;2022-08-23T15:17:17;28.20;33.70
25352;DHT22;13304;48.464;8.712;2022-08-23T15:19:42;28.30;33.80
25352;DHT22;13304;48.464;8.712;2022-08-23T15:22:09;28.30;34.30
25352;DHT22;13304;48.464;8.712;2022-08-23T15:24:37;28.30;33.60
25352;DHT22;13304;48.464;8.712;2022-08-23T15:27:04;28.40;34.20
25352;DHT22;13304;48.464;8.712;2022-08-23T15:29:33;28.50;34.20
25352;DHT22;13304;48.464;8.712;2022-08-23T15:31:58;28.70;33.20
25352;DHT22;13304;48.464;8.712;2022-08-23T15:34:27;28.80;33.70
25352;DHT22;13304;48.464;8.712;2022-08-23T15:36:53;28.90;33.50
25352;DHT22;13304;48.464;8.712;2022-08-23T15:39:21;29.00;33.20
25352;DHT22;13304;48.464;8.712;2022-08-23T15:41:46;29.10;32.70
25352;DHT22;13304;48.464;8.712;2022-08-23T15:44:12;29.10;33.10
25352;DHT22;13304;48.464;8.712;2022-08-23T15:46:45;29.20;33.40
25352;DHT22;13304;48.464;8.712;2022-08-23T15:49:14;29.30;32.90
25352;DHT22;13304;48.464;8.712;2022-08-23T15:51:40;29.50;33.20
25352;DHT22;13304;48.464;8.712;2022-08-23T15:54:11;29.70;32.70
25352;DHT22;13304;48.464;8.712;2022-08-23T15:56:43;29.80;31.90
25352;DHT22;13304;48.464;8.712;2022-08-23T15:59:18;30.00;31.50
25352;DHT22;13304;48.464;8.712;2022-08-23T16:01:45;30.10;31.30
25352;DHT22;13304;48.464;8.712;2022-08-23T16:04:11;30.10;31.20
25352;DHT22;13304;48.464;8.712;2022-08-23T16:06:44;30.00;30.70
25352;DHT22;13304;48.464;8.712;2022-08-23T16:09:18;29.80;30.90
25352;DHT22;13304;48.464;8.712;2022-08-23T16:11:45;29.70;30.90
25352;DHT22;13304;48.464;8.712;2022-08-23T16:14:11;29.60;31.20
25352;DHT22;13304;48.464;8.712;2022-08-23T16:16:38;29.50;31.70
25352;DHT22;13304;48.464;8.712;2022-08-23T16:19:05;29.30;31.60
25352;DHT22;13304;48.464;8.712;2022-08-23T16:21:31;29.20;32.00
25352;DHT22;13304;48.464;8.712;2022-08-23T16:23:57;29.10;32.10
25352;DHT22;13304;48.464;8.712;2022-08-23T16:26:27;29.00;32.30
25352;DHT22;13304;48.464;8.712;2022-08-23T16:28:54;28.90;32.10
25352;DHT22;13304;48.464;8.712;2022-08-23T16:31:21;28.80;31.90
25352;DHT22;13304;48.464;8.712;2022-08-23T16:33:47;28.70;32.40
25352;DHT22;13304;48.464;8.712;2022-08-23T16:36:15;28.60;32.60
25352;DHT22;13304;48.464;8.712;2022-08-23T16:38:43;28.60;32.70
25352;DHT22;13304;48.464;8.712;2022-08-23T16:41:09;28.40;32.60
25352;DHT22;13304;48.464;8.712;2022-08-23T16:43:35;28.40;32.50
25352;DHT22;13304;48.464;8.712;2022-08-23T16:46:03;28.40;32.80
25352;DHT22;13304;48.464;8.712;2022-08-23T16:48:29;28.30;32.60
25352;DHT22;13304;48.464;8.712;2022-08-23T16:50:55;28.30;33.10
25352;DHT22;13304;48.464;8.712;2022-08-23T16:53:21;28.30;33.60
25352;DHT22;13304;48.464;8.712;2022-08-23T16:55:47;28.20;33.60
25352;DHT22;13304;48.464;8.712;2022-08-23T16:58:13;28.20;33.50
25352;DHT22;13304;48.464;8.712;2022-08-23T17:00:39;28.10;33.60
25352;DHT22;13304;48.464;8.712;2022-08-23T17:03:05;28.10;33.80
25352;DHT22;13304;48.464;8.712;2022-08-23T17:05:31;28.10;33.90
25352;DHT22;13304;48.464;8.712;2022-08-23T17:07:57;28.00;33.80
25352;DHT22;13304;48.464;8.712;2022-08-23T17:10:24;28.00;33.70
25352;DHT22;13304;48.464;8.712;2022-08-23T17:12:52;28.00;33.90
25352;DHT22;13304;48.464;8.712;2022-08-23T17:15:31;28.00;34.00
25352;DHT22;13304;48.464;8.712;2022-08-23T17:17:58;27.90;34.00
25352;DHT22;13304;48.464;8.712;2022-08-23T17:20:27;27.90;33.90
25352;DHT22;13304;48.464;8.712;2022-08-23T17:22:53;27.80;33.90
25352;DHT22;13304;48.464;8.712;2022-08-23T17:25:20;27.80;34.80
25352;DHT22;13304;48.464;8.712;2022-08-23T17:27:48;27.80;34.50
25352;DHT22;13304;48.464;8.712;2022-08-23T17:30:15;27.80;34.70